createdAt,value
2022-08-16T00:01:24.764Z,20.70
2022-08-16T00:03:54.208Z,20.60
2022-08-16T00:06:22.498Z,20.60
2022-08-16T00:08:50.146Z,20.60
2022-08-16T00:11:20.784Z,20.60
2022-08-16T00:13:53.699Z,20.54
2022-08-16T00:16:58.013Z,20.50
2022-08-16T00:19:15.401Z,20.50
2022-08-16T00:21:44.072Z,20.50
2022-08-16T00:24:12.757Z,20.50
2022-08-16T00:26:45.170Z,20.50
2022-08-16T00:29:16.485Z,20.40
2022-08-16T00:32:00.805Z,20.40
2022-08-16T00:34:44.431Z,20.40
2022-08-16T00:37:58.159Z,20.40
2022-08-16T00:40:34.164Z,20.30
2022-08-16T00:43:19.359Z,20.30
2022-08-16T00:46:33.801Z,20.30
2022-08-16T00:49:04.487Z,20.30
2022-08-16T00:51:31.730Z,20.30
2022-08-16T00:53:58.741Z,20.30
2022-08-16T00:56:56.843Z,20.24
2022-08-16T00:59:23.654Z,20.30
2022-08-16T01:01:52.019Z,20.30
2022-08-16T01:04:29.444Z,20.26
2022-08-16T01:07:02.597Z,20.24
2022-08-16T01:09:34.213Z,20.28
2022-08-16T01:12:04.257Z,20.22
2022-08-16T01:14:44.070Z,20.20
2022-08-16T01:17:16.153Z,20.20
2022-08-16T01:19:52.231Z,20.20
2022-08-16T01:22:57.341Z,20.20
2022-08-16T01:25:34.151Z,20.20
2022-08-16T01:28:08.178Z,20.20
2022-08-16T01:30:50.032Z,20.20
2022-08-16T01:33:20.064Z,20.20
2022-08-16T01:36:11.755Z,20.20
2022-08-16T01:38:51.304Z,20.20
2022-08-16T01:41:32.436Z,20.20
2022-08-16T01:44:10.153Z,20.20
2022-08-16T01:46:43.600Z,20.20
2022-08-16T01:49:22.943Z,20.30
2022-08-16T01:51:57.949Z,20.30
2022-08-16T01:54:33.789Z,20.30
2022-08-16T01:57:05.581Z,20.30
2022-08-16T01:59:35.997Z,20.30
2022-08-16T02:02:05.302Z,20.30
2022-08-16T02:04:54.691Z,20.30
2022-08-16T02:07:23.543Z,20.30
2022-08-16T02:09:57.419Z,20.30
2022-08-16T02:12:49.356Z,20.30
2022-08-16T02:15:25.539Z,20.30
2022-08-16T02:17:56.335Z,20.20
2022-08-16T02:20:26.290Z,20.20
2022-08-16T02:22:57.297Z,20.20
2022-08-16T02:25:25.243Z,20.10
2022-08-16T02:28:11.989Z,20.10
2022-08-16T02:30:50.075Z,20.10
2022-08-16T02:33:18.443Z,20.10
2022-08-16T02:35:49.691Z,20.10
2022-08-16T02:38:24.058Z,20.10
2022-08-16T02:40:51.768Z,20.10
2022-08-16T02:43:26.758Z,20.04
2022-08-16T02:45:57.091Z,20.00
2022-08-16T02:48:29.629Z,20.00
2022-08-16T02:51:10.253Z,20.00
2022-08-16T02:53:48.696Z,19.90
2022-08-16T02:56:18.366Z,19.90
2022-08-16T02:58:47.776Z,19.80
2022-08-16T03:01:24.905Z,19.80
2022-08-16T03:04:39.886Z,19.80
2022-08-16T03:06:56.781Z,19.70
2022-08-16T03:09:47.166Z,19.70
2022-08-16T03:12:18.575Z,19.60
2022-08-16T03:14:47.956Z,19.60
2022-08-16T03:17:16.860Z,19.60
2022-08-16T03:19:52.771Z,19.50
2022-08-16T03:22:29.714Z,19.50
2022-08-16T03:25:09.439Z,19.40
2022-08-16T03:27:39.231Z,19.40
2022-08-16T03:30:26.689Z,19.40
2022-08-16T03:32:57.393Z,19.30
2022-08-16T03:35:32.695Z,19.30
2022-08-16T03:38:35.325Z,19.20
2022-08-16T03:41:17.065Z,19.20
2022-08-16T03:43:55.814Z,19.10
2022-08-16T03:46:44.857Z,19.10
2022-08-16T03:49:13.244Z,19.00
2022-08-16T03:51:42.495Z,18.96
2022-08-16T03:54:12.556Z,18.90
2022-08-16T03:56:57.126Z,18.90
2022-08-16T03:59:30.129Z,18.90
2022-08-16T04:02:01.549Z,18.90
2022-08-16T04:04:33.603Z,18.80
2022-08-16T04:07:07.106Z,18.80
2022-08-16T04:09:38.068Z,18.80
2022-08-16T04:12:11.363Z,18.80
2022-08-16T04:14:53.417Z,18.80
2022-08-16T04:17:21.339Z,18.80
2022-08-16T04:19:51.711Z,18.78
2022-08-16T04:22:27.381Z,18.72
2022-08-16T04:24:59.371Z,18.70
2022-08-16T04:27:31.815Z,18.70
2022-08-16T04:30:03.071Z,18.70
2022-08-16T04:32:33.460Z,18.70
2022-08-16T04:35:07.780Z,18.70
2022-08-16T04:37:42.003Z,18.70
2022-08-16T04:40:29.511Z,18.70
2022-08-16T04:42:59.634Z,18.70
2022-08-16T04:45:36.341Z,18.70
2022-08-16T04:48:21.814Z,18.70
2022-08-16T04:50:59.214Z,18.70
2022-08-16T04:53:42.706Z,18.70
2022-08-16T04:56:11.405Z,18.70
2022-08-16T04:58:46.149Z,18.70
2022-08-16T05:01:15.232Z,18.70
2022-08-16T05:04:00.390Z,18.70
2022-08-16T05:06:42.461Z,18.70
2022-08-16T05:09:19.252Z,18.70
2022-08-16T05:11:50.355Z,18.70
2022-08-16T05:14:20.008Z,18.70
2022-08-16T05:17:04.613Z,18.70
2022-08-16T05:19:36.230Z,18.72
2022-08-16T05:22:18.330Z,18.80
2022-08-16T05:24:49.451Z,18.80
2022-08-16T05:27:21.858Z,18.80
2022-08-16T05:29:57.777Z,18.80
2022-08-16T05:32:32.662Z,18.80
2022-08-16T05:35:10.872Z,18.90
2022-08-16T05:37:40.243Z,18.90
2022-08-16T05:40:11.809Z,18.90
2022-08-16T05:42:40.742Z,19.00
2022-08-16T05:45:13.664Z,19.00
2022-08-16T05:47:48.922Z,19.10
2022-08-16T05:50:28.324Z,19.12
2022-08-16T05:53:02.311Z,19.20
2022-08-16T05:55:29.987Z,19.30
2022-08-16T05:57:57.186Z,19.40
2022-08-16T06:00:25.214Z,19.50
2022-08-16T06:02:53.517Z,20.76
2022-08-16T06:05:41.378Z,22.84
2022-08-16T06:08:09.287Z,24.52
2022-08-16T06:11:10.369Z,26.20
2022-08-16T06:13:41.924Z,27.64
2022-08-16T06:16:18.018Z,28.74
2022-08-16T06:18:47.420Z,29.88
2022-08-16T06:21:22.648Z,30.76
2022-08-16T06:23:54.388Z,31.66
2022-08-16T06:26:22.730Z,32.60
2022-08-16T06:28:50.158Z,33.44
2022-08-16T06:31:27.472Z,34.20
2022-08-16T06:33:55.179Z,34.80
2022-08-16T06:36:24.148Z,35.34
2022-08-16T06:39:06.030Z,35.50
2022-08-16T06:41:55.718Z,34.98
2022-08-16T06:44:40.455Z,34.86
2022-08-16T06:47:18.631Z,35.36
2022-08-16T06:49:53.960Z,36.16
2022-08-16T06:52:59.825Z,36.60
2022-08-16T06:55:14.654Z,37.24
2022-08-16T07:01:16.094Z,38.46
2022-08-16T07:03:55.847Z,38.96
2022-08-16T07:06:27.940Z,39.36
2022-08-16T07:08:58.328Z,39.14
2022-08-16T07:11:48.181Z,39.10
2022-08-16T07:14:23.868Z,38.88
2022-08-16T07:16:53.129Z,37.32
2022-08-16T07:19:20.072Z,35.98
2022-08-16T07:21:59.500Z,34.74
2022-08-16T07:24:30.122Z,33.82
2022-08-16T07:27:04.368Z,32.46
2022-08-16T07:29:40.136Z,31.72
2022-08-16T07:32:40.713Z,31.16
2022-08-16T07:38:33.846Z,29.80
2022-08-16T07:41:09.805Z,29.40
2022-08-16T07:43:40.495Z,29.10
2022-08-16T07:46:39.105Z,28.78
2022-08-16T07:49:02.441Z,28.32
2022-08-16T07:51:36.971Z,28.02
2022-08-16T07:54:09.414Z,27.88
2022-08-16T07:56:47.101Z,27.88
2022-08-16T07:59:13.951Z,29.02
2022-08-16T08:05:25.547Z,32.38
2022-08-16T08:08:11.856Z,33.80
2022-08-16T08:10:52.032Z,34.92
2022-08-16T08:13:19.199Z,35.82
2022-08-16T08:16:06.238Z,36.58
2022-08-16T08:18:33.411Z,37.08
2022-08-16T08:21:01.068Z,36.76
2022-08-16T08:23:30.629Z,37.60
2022-08-16T08:25:58.220Z,38.14
2022-08-16T08:28:26.883Z,38.76
2022-08-16T08:31:02.874Z,38.90
2022-08-16T08:33:35.138Z,37.82
2022-08-16T08:36:08.148Z,38.10
2022-08-16T08:38:44.100Z,38.86
2022-08-16T08:41:18.214Z,39.76
2022-08-16T08:43:50.206Z,40.50
2022-08-16T08:46:21.300Z,41.04
2022-08-16T08:48:59.117Z,41.84
2022-08-16T08:51:36.905Z,42.86
2022-08-16T08:54:06.545Z,43.02
2022-08-16T08:56:37.535Z,42.40
2022-08-16T08:59:20.463Z,42.36
2022-08-16T09:01:57.416Z,42.84
2022-08-16T09:04:28.327Z,43.20
2022-08-16T09:06:56.533Z,42.74
2022-08-16T09:09:33.383Z,41.66
2022-08-16T09:12:08.481Z,41.74
2022-08-16T09:15:02.364Z,42.56
2022-08-16T09:17:53.516Z,43.22
2022-08-16T09:20:27.271Z,42.76
2022-08-16T09:22:55.310Z,41.90
2022-08-16T09:25:33.964Z,42.68
2022-08-16T09:28:08.945Z,43.50
2022-08-16T09:30:44.288Z,44.00
2022-08-16T09:33:20.020Z,44.70
2022-08-16T09:35:53.292Z,44.90
2022-08-16T09:38:31.480Z,45.46
2022-08-16T09:41:02.429Z,45.96
2022-08-16T09:46:44.496Z,42.46
2022-08-16T09:49:04.568Z,41.02
2022-08-16T09:51:36.785Z,39.72
2022-08-16T09:54:06.327Z,39.14
2022-08-16T09:56:52.870Z,39.44
2022-08-16T09:59:23.408Z,39.88
2022-08-16T10:01:51.831Z,39.64
2022-08-16T10:04:31.158Z,39.66
2022-08-16T10:07:02.651Z,38.40
2022-08-16T10:09:53.917Z,37.26
2022-08-16T10:12:55.713Z,36.36
2022-08-16T10:15:25.355Z,36.10
2022-08-16T10:18:00.024Z,35.50
2022-08-16T10:20:35.565Z,34.90
2022-08-16T10:23:08.542Z,34.60
2022-08-16T10:27:16.445Z,34.44
2022-08-16T10:28:32.519Z,33.50
2022-08-16T10:31:14.435Z,33.60
2022-08-16T10:33:44.765Z,33.60
2022-08-16T10:36:38.623Z,33.10
2022-08-16T10:39:00.586Z,32.90
2022-08-16T10:41:27.738Z,32.60
2022-08-16T10:43:56.419Z,32.38
2022-08-16T10:46:40.063Z,32.50
2022-08-16T10:49:12.863Z,32.20
2022-08-16T10:52:01.277Z,31.90
2022-08-16T10:54:32.065Z,32.14
2022-08-16T10:57:04.201Z,32.38
2022-08-16T10:59:45.057Z,32.50
2022-08-16T11:02:59.268Z,32.52
2022-08-16T11:05:14.292Z,32.70
2022-08-16T11:07:52.643Z,32.10
2022-08-16T11:19:06.220Z,32.00
2022-08-16T11:24:42.599Z,32.30
2022-08-16T11:27:19.388Z,32.20
2022-08-16T11:29:49.846Z,32.10
2022-08-16T11:32:20.001Z,32.20
2022-08-16T11:35:11.240Z,32.20
2022-08-16T11:38:06.065Z,32.10
2022-08-16T11:40:32.661Z,32.00
2022-08-16T11:43:04.848Z,31.56
2022-08-16T11:45:35.151Z,31.20
2022-08-16T11:48:05.483Z,30.92
2022-08-16T11:50:34.474Z,30.80
2022-08-16T11:53:03.785Z,30.80
2022-08-16T11:55:32.225Z,30.80
2022-08-16T11:58:00.415Z,30.82
2022-08-16T12:00:33.854Z,30.80
2022-08-16T12:03:17.859Z,31.00
2022-08-16T12:05:46.746Z,31.00
2022-08-16T12:08:19.097Z,30.90
2022-08-16T12:10:46.880Z,30.90
2022-08-16T12:13:14.420Z,30.60
2022-08-16T12:15:42.672Z,30.38
2022-08-16T12:18:09.979Z,30.36
2022-08-16T12:20:42.884Z,30.20
2022-08-16T12:23:12.902Z,30.32
2022-08-16T12:25:39.942Z,30.50
2022-08-16T12:28:09.795Z,30.70
2022-08-16T12:30:42.732Z,30.80
2022-08-16T12:33:16.338Z,30.80
2022-08-16T12:35:52.501Z,30.60
2022-08-16T12:38:41.696Z,30.60
2022-08-16T12:41:08.150Z,30.70
2022-08-16T12:43:37.258Z,30.80
2022-08-16T12:46:13.198Z,30.80
2022-08-16T12:49:00.677Z,30.84
2022-08-16T12:51:59.768Z,30.60
2022-08-16T12:54:26.869Z,30.60
2022-08-16T12:56:53.688Z,30.70
2022-08-16T12:59:23.661Z,30.70
2022-08-16T13:01:55.475Z,30.88
2022-08-16T13:04:28.054Z,31.10
2022-08-16T13:09:42.217Z,31.30
2022-08-16T13:12:25.114Z,31.40
2022-08-16T13:14:53.745Z,31.30
2022-08-16T13:17:26.279Z,31.20
2022-08-16T13:20:07.754Z,31.10
2022-08-16T13:22:54.982Z,31.00
2022-08-16T13:25:25.652Z,30.90
2022-08-16T13:28:02.367Z,31.06
2022-08-16T13:30:41.715Z,31.32
2022-08-16T13:33:15.777Z,31.50
2022-08-16T13:35:55.944Z,31.70
2022-08-16T13:38:30.160Z,31.80
2022-08-16T13:41:02.313Z,31.88
2022-08-16T13:43:32.690Z,31.70
2022-08-16T13:46:04.702Z,31.70
2022-08-16T13:48:42.815Z,31.70
2022-08-16T13:51:17.053Z,31.86
2022-08-16T13:53:59.734Z,31.80
2022-08-16T13:56:37.463Z,31.80
2022-08-16T13:59:19.411Z,31.80
2022-08-16T14:01:56.710Z,31.80
2022-08-16T14:04:36.532Z,31.60
2022-08-16T14:07:08.862Z,31.60
2022-08-16T14:09:36.979Z,31.40
2022-08-16T14:12:19.379Z,31.36
2022-08-16T14:14:47.662Z,31.50
2022-08-16T14:17:14.639Z,31.60
2022-08-16T14:19:44.572Z,31.70
2022-08-16T14:22:31.140Z,31.60
2022-08-16T14:25:03.077Z,31.54
2022-08-16T14:27:30.806Z,31.60
2022-08-16T14:29:59.144Z,31.50
2022-08-16T14:32:33.561Z,31.60
2022-08-16T14:35:18.479Z,31.70
2022-08-16T14:37:45.327Z,31.60
2022-08-16T14:40:20.386Z,31.60
2022-08-16T14:42:48.248Z,31.60
2022-08-16T14:45:20.564Z,31.64
2022-08-16T14:47:49.798Z,31.80
2022-08-16T14:50:23.029Z,31.62
2022-08-16T14:52:59.528Z,31.70
2022-08-16T14:55:30.033Z,31.66
2022-08-16T14:57:58.300Z,31.60
2022-08-16T15:00:34.637Z,31.60
2022-08-16T15:03:08.638Z,31.60
2022-08-16T15:05:39.164Z,31.60
2022-08-16T15:08:06.404Z,31.60
2022-08-16T15:10:35.001Z,31.48
2022-08-16T15:13:09.624Z,31.38
2022-08-16T15:15:38.143Z,31.38
2022-08-16T15:18:06.203Z,31.30
2022-08-16T15:20:38.495Z,31.30
2022-08-16T15:23:09.074Z,31.40
2022-08-16T15:25:53.445Z,31.50
2022-08-16T15:28:31.762Z,31.60
2022-08-16T15:31:03.626Z,31.38
2022-08-16T15:33:42.139Z,31.10
2022-08-16T15:36:17.938Z,31.00
2022-08-16T15:39:03.785Z,31.10
2022-08-16T15:41:43.679Z,31.10
2022-08-16T15:44:21.424Z,31.06
2022-08-16T15:46:56.821Z,31.00
2022-08-16T15:49:37.866Z,30.80
2022-08-16T15:52:30.107Z,30.60
2022-08-16T15:55:23.825Z,30.60
2022-08-16T15:57:57.267Z,30.60
2022-08-16T16:00:26.811Z,30.60
2022-08-16T16:03:12.752Z,30.60
2022-08-16T16:05:44.819Z,30.40
2022-08-16T16:08:22.451Z,30.30
2022-08-16T16:10:54.934Z,30.10
2022-08-16T16:13:23.570Z,29.90
2022-08-16T16:15:53.814Z,29.80
2022-08-16T16:18:21.996Z,29.80
2022-08-16T16:20:54.124Z,29.70
2022-08-16T16:23:26.319Z,29.70
2022-08-16T16:25:54.879Z,29.60
2022-08-16T16:29:05.423Z,29.60
2022-08-16T16:31:16.035Z,29.44
2022-08-16T16:33:47.856Z,29.40
2022-08-16T16:36:20.841Z,29.30
2022-08-16T16:38:50.507Z,29.30
2022-08-16T16:41:22.840Z,29.24
2022-08-16T16:43:53.569Z,29.20
2022-08-16T16:46:40.637Z,29.18
2022-08-16T16:49:14.229Z,29.00
2022-08-16T16:51:47.058Z,29.00
2022-08-16T16:54:27.450Z,29.08
2022-08-16T16:56:58.150Z,29.00
2022-08-16T16:59:28.129Z,29.00
2022-08-16T17:02:01.371Z,28.90
2022-08-16T17:04:43.583Z,28.80
2022-08-16T17:07:12.266Z,28.70
2022-08-16T17:09:41.170Z,28.60
2022-08-16T17:12:17.668Z,28.60
2022-08-16T17:14:57.544Z,28.50
2022-08-16T17:17:24.643Z,28.50
2022-08-16T17:19:51.593Z,28.50
2022-08-16T17:22:21.945Z,28.50
2022-08-16T17:24:52.396Z,28.40
2022-08-16T17:27:32.597Z,28.40
2022-08-16T17:30:15.772Z,28.40
2022-08-16T17:32:54.691Z,28.30
2022-08-16T17:35:55.916Z,28.30
2022-08-16T17:38:38.546Z,28.20
2022-08-16T17:41:11.797Z,28.20
2022-08-16T17:43:44.159Z,28.16
2022-08-16T17:46:41.749Z,28.10
2022-08-16T17:49:01.164Z,28.06
2022-08-16T17:51:28.557Z,28.00
2022-08-16T17:53:55.732Z,28.00
2022-08-16T17:56:22.552Z,27.90
2022-08-16T17:58:49.404Z,27.90
2022-08-16T18:01:18.272Z,27.80
2022-08-16T18:04:07.333Z,27.76
2022-08-16T18:06:31.616Z,27.70
2022-08-16T18:09:03.782Z,27.70
2022-08-16T18:11:34.002Z,27.60
2022-08-16T18:14:00.868Z,27.60
2022-08-16T18:16:27.651Z,27.58
2022-08-16T18:18:54.282Z,27.50
2022-08-16T18:21:40.628Z,27.50
2022-08-16T18:24:09.816Z,27.40
2022-08-16T18:26:37.349Z,27.40
2022-08-16T18:29:05.541Z,27.30
2022-08-16T18:31:32.401Z,27.30
2022-08-16T18:33:59.626Z,27.20
2022-08-16T18:36:26.456Z,27.20
2022-08-16T18:38:53.861Z,27.10
2022-08-16T18:41:23.154Z,27.00
2022-08-16T18:44:22.510Z,26.90
2022-08-16T18:46:40.304Z,26.90
2022-08-16T18:49:07.764Z,26.80
2022-08-16T18:51:35.773Z,26.76
2022-08-16T18:54:02.649Z,26.70
2022-08-16T18:56:55.743Z,26.60
2022-08-16T18:59:16.742Z,26.60
2022-08-16T19:01:44.030Z,26.50
2022-08-16T19:04:55.475Z,26.40
2022-08-16T19:06:57.383Z,26.40
2022-08-16T19:09:24.120Z,26.30
2022-08-16T19:11:50.815Z,26.20
2022-08-16T19:14:18.251Z,26.20
2022-08-16T19:16:44.916Z,26.10
2022-08-16T19:19:11.548Z,26.10
2022-08-16T19:21:39.500Z,26.02
2022-08-16T19:24:06.276Z,26.00
2022-08-16T19:26:45.495Z,25.98
2022-08-16T19:29:12.391Z,25.90
2022-08-16T19:31:40.367Z,25.90
2022-08-16T19:34:08.273Z,25.80
2022-08-16T19:36:39.553Z,25.80
2022-08-16T19:39:12.074Z,25.70
2022-08-16T19:41:53.396Z,25.70
2022-08-16T19:44:22.701Z,25.70
2022-08-16T19:46:50.585Z,25.60
2022-08-16T19:49:17.787Z,25.60
2022-08-16T19:51:49.131Z,25.54
2022-08-16T19:54:16.373Z,25.50
2022-08-16T19:56:43.159Z,25.50
2022-08-16T19:59:39.084Z,25.40
2022-08-16T20:01:57.611Z,25.40
2022-08-16T20:04:25.164Z,25.40
2022-08-16T20:06:53.363Z,25.32
2022-08-16T20:09:22.573Z,25.30
2022-08-16T20:11:52.212Z,25.30
2022-08-16T20:14:25.370Z,25.30
2022-08-16T20:16:56.523Z,25.30
2022-08-16T20:19:24.614Z,25.20
2022-08-16T20:21:51.401Z,25.20
2022-08-16T20:24:35.660Z,25.20
2022-08-16T20:27:07.276Z,25.10
2022-08-16T20:29:35.832Z,25.10
2022-08-16T20:32:07.419Z,25.02
2022-08-16T20:34:35.344Z,25.00
2022-08-16T20:37:02.050Z,25.00
2022-08-16T20:39:28.934Z,24.90
2022-08-16T20:41:55.604Z,24.90
2022-08-16T20:44:22.686Z,24.90
2022-08-16T20:46:51.791Z,24.80
2022-08-16T20:49:18.483Z,24.80
2022-08-16T20:51:50.789Z,24.72
2022-08-16T20:54:20.914Z,24.70
2022-08-16T20:56:48.150Z,24.70
2022-08-16T20:59:15.274Z,24.60
2022-08-16T21:01:46.244Z,24.60
2022-08-16T21:04:23.154Z,24.50
2022-08-16T21:06:54.129Z,24.50
2022-08-16T21:09:25.757Z,24.40
2022-08-16T21:11:56.000Z,24.40
2022-08-16T21:14:23.844Z,24.40
2022-08-16T21:16:51.342Z,24.30
2022-08-16T21:19:18.557Z,24.30
2022-08-16T21:21:45.267Z,24.20
2022-08-16T21:24:12.538Z,24.20
2022-08-16T21:26:39.326Z,24.20
2022-08-16T21:29:06.654Z,24.14
2022-08-16T21:31:40.361Z,24.10
2022-08-16T21:34:08.179Z,24.10
2022-08-16T21:36:36.627Z,24.08
2022-08-16T21:39:06.793Z,24.00
2022-08-16T21:41:35.385Z,23.94
2022-08-16T21:44:02.252Z,23.90
2022-08-16T21:46:28.993Z,23.90
2022-08-16T21:48:55.671Z,23.80
2022-08-16T21:51:22.488Z,23.80
2022-08-16T21:53:49.186Z,23.70
2022-08-16T21:56:17.304Z,23.70
2022-08-16T21:58:46.013Z,23.66
2022-08-16T22:01:13.699Z,23.60
2022-08-16T22:03:40.570Z,23.60
2022-08-16T22:06:12.987Z,23.50
2022-08-16T22:08:51.069Z,23.50
2022-08-16T22:11:21.969Z,23.50
2022-08-16T22:13:57.179Z,23.40
2022-08-16T22:16:33.955Z,23.40
2022-08-16T22:19:02.617Z,23.36
2022-08-16T22:21:30.602Z,23.30
2022-08-16T22:23:58.995Z,23.30
2022-08-16T22:26:30.193Z,23.20
2022-08-16T22:29:00.821Z,23.20
2022-08-16T22:31:27.913Z,23.12
2022-08-16T22:33:55.990Z,23.10
2022-08-16T22:36:22.707Z,23.10
2022-08-16T22:38:56.210Z,23.00
2022-08-16T22:41:24.744Z,23.00
2022-08-16T22:43:52.186Z,23.00
2022-08-16T22:46:19.516Z,22.90
2022-08-16T22:48:50.040Z,22.90
2022-08-16T22:51:21.990Z,22.90
2022-08-16T22:53:49.132Z,22.80
2022-08-16T22:56:17.420Z,22.80
2022-08-16T22:58:46.024Z,22.70
2022-08-16T23:01:14.697Z,22.70
2022-08-16T23:03:41.634Z,22.68
2022-08-16T23:06:10.461Z,22.60
2022-08-16T23:08:40.855Z,22.60
2022-08-16T23:11:18.420Z,22.60
2022-08-16T23:13:50.700Z,22.50
2022-08-16T23:16:32.704Z,22.50
2022-08-16T23:19:08.721Z,22.40
2022-08-16T23:21:37.667Z,22.40
2022-08-16T23:24:06.178Z,22.40
2022-08-16T23:26:44.140Z,22.34
2022-08-16T23:29:24.667Z,22.30
2022-08-16T23:32:11.374Z,22.30
2022-08-16T23:34:38.430Z,22.30
2022-08-16T23:37:06.636Z,22.30
2022-08-16T23:39:35.903Z,22.26
2022-08-16T23:42:14.464Z,22.20
2022-08-16T23:44:57.362Z,22.20
2022-08-16T23:47:25.944Z,22.20
2022-08-16T23:49:59.914Z,22.10
2022-08-16T23:52:53.119Z,22.10
2022-08-16T23:55:16.947Z,22.10
2022-08-16T23:57:44.922Z,22.00
